Emerald Princess — ZCDP8 — position and weather

sailwx.info

Track history (hours):
 
Tides and Currents Weather Stations Pressure Air Temp Water Temp Dewpoint Dewpoint Depression Visibility Wind Speed Wind Dir Waves Ship Positions

Emerald Princess

Last reported at 2019-Sep-16 20:00 UTC. Time now 2019-Sep-17 08:52 UTC.
Position N 40°48' E 018°54'.

Type: Ship. MMSI: 310531000.

Wind from 330 at 10 knots

Barometer 1017.2 mb
Air temperature 23.0 ° C
Visibility: greater than 10.8 NM
Dewpoint 20.1 ° C
Water temperature 24.0 ° C

Date/timePositionNaut miles runAvg speedWind from/ knotsBaromVisibWave heightAir tempDewpointWater temp
2019-Sep-16 20:00N 40°48' E 018°54'307 6.2 330 / 101017.210.8 23.020.124.0
2019-Sep-14 18:14N 37°25' E 023°51'416.2
2019-Sep-14 17:59N 37°29' E 023°48'816.4
2019-Sep-14 17:30N 37°36' E 023°45'816.5
2019-Sep-14 17:00N 37°43' E 023°40'817.0
2019-Sep-14 16:30N 37°51' E 023°37'5 9.6
2019-Sep-14 16:00N 37°56' E 023°37'0 0.3
2019-Sep-14 15:29N 37°56' E 023°37'0 0.0
2019-Sep-14 14:59N 37°56' E 023°37'0 0.0
2019-Sep-14 14:29N 37°56' E 023°37'0 0.0
2019-Sep-14 13:59N 37°56' E 023°37'0 0.0
2019-Sep-14 13:28N 37°56' E 023°37'0 0.0
2019-Sep-14 12:58N 37°56' E 023°37'0 0.0
2019-Sep-14 12:28N 37°56' E 023°37'0 0.0
2019-Sep-14 11:58N 37°56' E 023°37'0 0.0
2019-Sep-14 11:27N 37°56' E 023°37'0 0.0
2019-Sep-14 11:00N 37°56' E 023°37'0 0.0
2019-Sep-14 10:30N 37°56' E 023°37'0 0.0
2019-Sep-14 10:00N 37°56' E 023°37'0 0.0
2019-Sep-14 09:30N 37°56' E 023°37'0 0.0
2019-Sep-14 08:59N 37°56' E 023°37'0 0.0
2019-Sep-14 08:29N 37°56' E 023°37'0 0.0
2019-Sep-14 07:59N 37°56' E 023°37'0 0.0
2019-Sep-14 07:29N 37°56' E 023°37'0 0.0
2019-Sep-14 06:59N 37°56' E 023°37'0 0.0
2019-Sep-14 06:28N 37°56' E 023°37'0 0.0
2019-Sep-14 05:58N 37°56' E 023°37'0 0.0
2019-Sep-14 05:28N 37°56' E 023°37'0 0.0
2019-Sep-14 04:58N 37°56' E 023°37'0 0.0
2019-Sep-14 04:30N 37°56' E 023°37'0 0.0
2019-Sep-14 04:00N 37°56' E 023°37'0 0.0
2019-Sep-14 03:27N 37°56' E 023°37'0 0.0
2019-Sep-14 03:00N 37°56' E 023°37'0 0.0
2019-Sep-14 02:27N 37°56' E 023°37'0 0.0
2019-Sep-14 01:59N 37°56' E 023°37'0 0.0
2019-Sep-14 01:29N 37°56' E 023°37'0 0.0
2019-Sep-14 00:59N 37°56' E 023°37'0 0.0
2019-Sep-14 00:30N 37°56' E 023°37'0 0.7
2019-Sep-14 00:01N 37°56' E 023°37'510.3
2019-Sep-13 23:30N 37°51' E 023°39'714.3
2019-Sep-13 23:01N 37°45' E 023°43'713.8
2019-Sep-13 22:30N 37°38' E 023°46'510.1
2019-Sep-13 22:00N 37°33' E 023°46'4 8.6
2019-Sep-13 21:30N 37°29' E 023°44'5 9.0
2019-Sep-13 20:58N 37°24' E 023°45'11 9.3
2019-Sep-13 19:49N 37°14' E 023°45'62 4.2
2019-Sep-13 05:02N 37°14' E 025°03'011.8
2019-Sep-13 05:00N 37°15' E 025°03'611.8
2019-Sep-13 04:30N 37°20' E 025°06'612.5
2019-Sep-13 04:00N 37°26' E 025°09'611.9
2019-Sep-13 03:30N 37°28' E 025°16'1 1.2
2019-Sep-13 03:00N 37°28' E 025°16'1514.8
2019-Sep-13 02:00N 37°16' E 025°04'816.6
2019-Sep-13 01:30N 37°09' E 025°00'221 7.7
2019-Sep-11 21:00N 37°30' E 020°24'221 4.6 010 / 71018.310.8 24.519.427.0
2019-Sep-09 21:00N 40°54' E 018°36'21417.9 280 / 91014.410.8 25.523.426.0
2019-Sep-09 09:00N 37°48' E 016°18'1314.9 160 / 101015.410.8 26.025.327.0
2019-Sep-09 08:05N 37°49' E 016°01'219.5
2019-Sep-09 08:00N 37°49' E 015°59'1019.6
2019-Sep-09 07:31N 37°49' E 015°47'1418.6
2019-Sep-09 06:45N 37°58' E 015°33'518.3
2019-Sep-09 06:31N 38°02' E 015°33'816.9
2019-Sep-09 06:00N 38°11' E 015°35'916.7
2019-Sep-09 05:29N 38°18' E 015°41'919.5
2019-Sep-09 05:01N 38°27' E 015°37'815.3
2019-Sep-09 04:30N 38°34' E 015°31'511.1
2019-Sep-09 04:00N 38°38' E 015°28'612.1
2019-Sep-09 03:30N 38°44' E 015°25'612.0
2019-Sep-09 03:01N 38°50' E 015°22'8911.7
2019-Sep-08 19:23N 40°13' E 014°43'912.5
2019-Sep-08 18:38N 40°22' E 014°43'213.1
2019-Sep-08 18:30N 40°24' E 014°43'713.4
2019-Sep-08 18:00N 40°31' E 014°43'6 0.4
2019-Sep-08 03:56N 40°37' E 014°40'614.1
2019-Sep-08 03:30N 40°35' E 014°32'816.5
2019-Sep-08 03:00N 40°32' E 014°22'816.6
2019-Sep-08 02:31N 40°30' E 014°12'1118.4
2019-Sep-08 01:56N 40°27' E 013°58'818.6
2019-Sep-08 01:30N 40°27' E 013°48'1019.8
2019-Sep-08 01:00N 40°30' E 013°35'7318.1
2019-Sep-07 21:00N 41°06' E 012°12'94 4.3 260 / 111015.810.8 23.016.926.0
2019-Sep-06 23:00N 42°11' E 010°41'1420.2
2019-Sep-06 22:18N 42°13' E 010°22'620.5
2019-Sep-06 22:00N 42°14' E 010°14'  
Track history (hours):
 
Tides and Currents Weather Stations Pressure Air Temp Water Temp Dewpoint Dewpoint Depression Visibility Wind Speed Wind Dir Waves Ship Positions

Emerald Princess

Last reported at 2019-Sep-16 20:00 UTC. Time now 2019-Sep-17 08:52 UTC.
Position N 40°48' E 018°54'.

Type: Ship. MMSI: 310531000.

Wind from 330 at 10 knots

Barometer 1017.2 mb
Air temperature 23.0 ° C
Visibility: greater than 10.8 NM
Dewpoint 20.1 ° C
Water temperature 24.0 ° C

Date/timePositionNaut miles runAvg speedWind from/ knotsBaromVisibWave heightAir tempDewpointWater temp
2019-Sep-16 20:00N 40°48' E 018°54'307 6.2 330 / 101017.210.8 23.020.124.0
2019-Sep-14 18:14N 37°25' E 023°51'416.2
2019-Sep-14 17:59N 37°29' E 023°48'816.4
2019-Sep-14 17:30N 37°36' E 023°45'816.5
2019-Sep-14 17:00N 37°43' E 023°40'817.0
2019-Sep-14 16:30N 37°51' E 023°37'5 9.6
2019-Sep-14 16:00N 37°56' E 023°37'0 0.3
2019-Sep-14 15:29N 37°56' E 023°37'0 0.0
2019-Sep-14 14:59N 37°56' E 023°37'0 0.0
2019-Sep-14 14:29N 37°56' E 023°37'0 0.0
2019-Sep-14 13:59N 37°56' E 023°37'0 0.0
2019-Sep-14 13:28N 37°56' E 023°37'0 0.0
2019-Sep-14 12:58N 37°56' E 023°37'0 0.0
2019-Sep-14 12:28N 37°56' E 023°37'0 0.0
2019-Sep-14 11:58N 37°56' E 023°37'0 0.0
2019-Sep-14 11:27N 37°56' E 023°37'0 0.0
2019-Sep-14 11:00N 37°56' E 023°37'0 0.0
2019-Sep-14 10:30N 37°56' E 023°37'0 0.0
2019-Sep-14 10:00N 37°56' E 023°37'0 0.0
2019-Sep-14 09:30N 37°56' E 023°37'0 0.0
2019-Sep-14 08:59N 37°56' E 023°37'0 0.0
2019-Sep-14 08:29N 37°56' E 023°37'0 0.0
2019-Sep-14 07:59N 37°56' E 023°37'0 0.0
2019-Sep-14 07:29N 37°56' E 023°37'0 0.0
2019-Sep-14 06:59N 37°56' E 023°37'0 0.0
2019-Sep-14 06:28N 37°56' E 023°37'0 0.0
2019-Sep-14 05:58N 37°56' E 023°37'0 0.0
2019-Sep-14 05:28N 37°56' E 023°37'0 0.0
2019-Sep-14 04:58N 37°56' E 023°37'0 0.0
2019-Sep-14 04:30N 37°56' E 023°37'0 0.0
2019-Sep-14 04:00N 37°56' E 023°37'0 0.0
2019-Sep-14 03:27N 37°56' E 023°37'0 0.0
2019-Sep-14 03:00N 37°56' E 023°37'0 0.0
2019-Sep-14 02:27N 37°56' E 023°37'0 0.0
2019-Sep-14 01:59N 37°56' E 023°37'0 0.0
2019-Sep-14 01:29N 37°56' E 023°37'0 0.0
2019-Sep-14 00:59N 37°56' E 023°37'0 0.0
2019-Sep-14 00:30N 37°56' E 023°37'0 0.7
2019-Sep-14 00:01N 37°56' E 023°37'510.3
2019-Sep-13 23:30N 37°51' E 023°39'714.3
2019-Sep-13 23:01N 37°45' E 023°43'713.8
2019-Sep-13 22:30N 37°38' E 023°46'510.1
2019-Sep-13 22:00N 37°33' E 023°46'4 8.6
2019-Sep-13 21:30N 37°29' E 023°44'5 9.0
2019-Sep-13 20:58N 37°24' E 023°45'11 9.3
2019-Sep-13 19:49N 37°14' E 023°45'62 4.2
2019-Sep-13 05:02N 37°14' E 025°03'011.8
2019-Sep-13 05:00N 37°15' E 025°03'611.8
2019-Sep-13 04:30N 37°20' E 025°06'612.5
2019-Sep-13 04:00N 37°26' E 025°09'611.9
2019-Sep-13 03:30N 37°28' E 025°16'1 1.2
2019-Sep-13 03:00N 37°28' E 025°16'1514.8
2019-Sep-13 02:00N 37°16' E 025°04'816.6
2019-Sep-13 01:30N 37°09' E 025°00'221 7.7
2019-Sep-11 21:00N 37°30' E 020°24'221 4.6 010 / 71018.310.8 24.519.427.0
2019-Sep-09 21:00N 40°54' E 018°36'21417.9 280 / 91014.410.8 25.523.426.0
2019-Sep-09 09:00N 37°48' E 016°18'1314.9 160 / 101015.410.8 26.025.327.0
2019-Sep-09 08:05N 37°49' E 016°01'219.5
2019-Sep-09 08:00N 37°49' E 015°59'1019.6
2019-Sep-09 07:31N 37°49' E 015°47'1418.6
2019-Sep-09 06:45N 37°58' E 015°33'518.3
2019-Sep-09 06:31N 38°02' E 015°33'816.9
2019-Sep-09 06:00N 38°11' E 015°35'916.7
2019-Sep-09 05:29N 38°18' E 015°41'919.5
2019-Sep-09 05:01N 38°27' E 015°37'815.3
2019-Sep-09 04:30N 38°34' E 015°31'511.1
2019-Sep-09 04:00N 38°38' E 015°28'612.1
2019-Sep-09 03:30N 38°44' E 015°25'612.0
2019-Sep-09 03:01N 38°50' E 015°22'8911.7
2019-Sep-08 19:23N 40°13' E 014°43'912.5
2019-Sep-08 18:38N 40°22' E 014°43'213.1
2019-Sep-08 18:30N 40°24' E 014°43'713.4
2019-Sep-08 18:00N 40°31' E 014°43'6 0.4
2019-Sep-08 03:56N 40°37' E 014°40'614.1
2019-Sep-08 03:30N 40°35' E 014°32'816.5
2019-Sep-08 03:00N 40°32' E 014°22'816.6
2019-Sep-08 02:31N 40°30' E 014°12'1118.4
2019-Sep-08 01:56N 40°27' E 013°58'818.6
2019-Sep-08 01:30N 40°27' E 013°48'1019.8
2019-Sep-08 01:00N 40°30' E 013°35'7318.1
2019-Sep-07 21:00N 41°06' E 012°12'94 4.3 260 / 111015.810.8 23.016.926.0
2019-Sep-06 23:00N 42°11' E 010°41'1420.2
2019-Sep-06 22:18N 42°13' E 010°22'620.5
2019-Sep-06 22:00N 42°14' E 010°14'  

Dump ship's entire track history